Aeroporto :
LOGIN :

Iscrizione | Disclaimer

   EN    FR    IT 

 










Sommario :    VFR   VFR Marginale   IFR   IFR Intensivo   IFR Molto Intensivo
Visibilità : 
Base nubi : 
>= 8 km
>= 3000ft
5 / 8 km
1000 / 3000 ft
1500m / 5 km
500 / 1000 ft
800 / 1500m
200 / 500 ft
< 800m
< 200 ft
Simboli :   Temporali  Nebbia  Neve Forte  Precipitazioni Forti  Vento > 20 kt
SIGMETs :   Varie  Temporali  Ghiacco  Turbolenza  Onda orograficha  Ceneri Vulcaniche






- Altitudine del aeroporto : 489 ft
- Codice IATA : GDN


EPGD - Gdansk

ULTIMO METAR :
  • 231200Z 25007KT 9999 BKN025 12/07 Q1022

METARs OBSOLETI :
  • 231130Z 25006KT 220V280 9999 FEW022 SCT025 12/07 Q1022
  • 231100Z 25006KT 9999 FEW018 BKN024 12/08 Q1022
  • 231030Z 28006KT 250V310 9999 FEW016 BKN020 12/08 Q1023
  • 231000Z 26008KT 230V300 9999 SCT017 BKN021 12/08 Q1023
  • 230930Z 24006KT 210V270 9999 FEW015 BKN020 12/08 Q1023

TAF TAF EPGD
Valido dal 23 a 12 ore il 24 a 12 ore UTC


231130Z 2312/2412 26010KT 9999 BKN025
BECMG 2315/2318 VRB02KT
BECMG 2322/2324 14010KT 2000 BR BKN005
PROB40 2323/2409 0600 FG OVC001
PROB30 2400/2407 0200 FG
BECMG 2410/2412 8000 BKN008



MetMap, La meteo Aeronautica in un colpo d'occhio ! - Copyright ORBIFLY Dicembre 2007 - Disclaimer

ORBIFLY MET'MAP TEAM :

Programmazione e sviluppo : Alexandra Zaïnal
Concezione e sviluppo : Baudouin d'Aumeries
Co-Programmazione e sviluppo : Marc-Olivier Méhu
Supporto tecnico e logistico : Manuel Goepfert
Aiuto per la traduzione : Arnaldo La Scala

Contatto : metmap@orbifly.com




FONTI E CREDITI :

   NOAA